Time;durP1;ratioP1;P1;durP2;ratioP2;P2;SDS_P1;SDS_P2;PMS_P1;PMS_P2;Temp;Humidity;BMP_temperature;BMP_pressure;BME280_temperature;BME280_humidity;BME280_pressure;Samples;Min_cycle;Max_cycle;Signal;HPM_P1;HPM_P2
2023/04/17 00:01:05;;;;;;;60.90;29.80;;;7.80;99.90;;;;;;5016105;28;20541;-81
2023/04/17 00:03:31;;;;;;;62.13;29.25;;;7.80;99.90;;;;;;5031313;28;20050;-81
2023/04/17 00:05:57;;;;;;;62.83;30.25;;;7.80;99.90;;;;;;5015405;28;20042;-81
2023/04/17 00:08:22;;;;;;;66.55;30.90;;;7.90;99.90;;;;;;5016269;28;20046;-81
2023/04/17 00:10:48;;;;;;;67.85;30.83;;;7.90;99.90;;;;;;5016233;28;20046;-81
2023/04/17 00:13:14;;;;;;;66.22;31.58;;;8.20;99.90;;;;;;5030534;28;20933;-81
2023/04/17 00:15:39;;;;;;;60.78;29.48;;;7.90;99.90;;;;;;5031285;28;20516;-81
2023/04/17 00:18:05;;;;;;;64.70;29.98;;;7.90;99.90;;;;;;5031282;28;20041;-81
2023/04/17 00:20:30;;;;;;;67.30;29.75;;;7.90;99.90;;;;;;5014090;28;20509;-81
2023/04/17 00:22:56;;;;;;;59.17;28.65;;;7.90;99.90;;;;;;5015511;28;20046;-81
2023/04/17 00:25:22;;;;;;;58.63;27.60;;;7.90;99.90;;;;;;5015538;28;20042;-81
2023/04/17 00:27:48;;;;;;;63.42;30.63;;;7.90;99.90;;;;;;5014001;28;20045;-81
2023/04/17 00:30:14;;;;;;;60.72;28.85;;;7.90;99.90;;;;;;5030739;28;20080;-81
2023/04/17 00:32:39;;;;;;;60.08;28.77;;;7.80;99.90;;;;;;5031146;28;20077;-81
2023/04/17 00:35:05;;;;;;;60.40;29.45;;;7.80;99.90;;;;;;5014569;28;20081;-81
2023/04/17 00:37:31;;;;;;;68.05;30.10;;;7.90;99.90;;;;;;5014628;28;20042;-81
2023/04/17 00:39:57;;;;;;;62.42;30.70;;;7.80;99.90;;;;;;5015573;28;20045;-81
2023/04/17 00:42:22;;;;;;;61.05;30.10;;;7.90;99.90;;;;;;5030077;28;20449;-81
2023/04/17 00:44:48;;;;;;;66.63;30.95;;;7.90;99.90;;;;;;5015585;28;20122;-81
2023/04/17 00:47:13;;;;;;;62.95;30.02;;;7.90;99.90;;;;;;5014618;28;20052;-81
2023/04/17 00:49:39;;;;;;;60.47;29.13;;;7.90;99.90;;;;;;5030725;28;20434;-81
2023/04/17 00:52:05;;;;;;;67.55;30.80;;;7.90;99.90;;;;;;5030385;28;20046;-81
2023/04/17 00:54:31;;;;;;;65.05;30.58;;;7.90;99.90;;;;;;5013038;28;20057;-81
2023/04/17 00:56:58;;;;;;;68.63;30.90;;;7.90;99.90;;;;;;5015106;28;20077;-81
2023/04/17 00:59:25;;;;;;;63.40;29.67;;;7.90;99.90;;;;;;5030289;28;20121;-81
2023/04/17 01:01:50;;;;;;;70.57;30.80;;;7.90;99.90;;;;;;5014502;28;20054;-81
2023/04/17 01:04:16;;;;;;;67.27;30.67;;;7.90;99.90;;;;;;5015059;28;20065;-81
2023/04/17 01:06:42;;;;;;;71.17;32.30;;;7.90;99.90;;;;;;5014793;28;20038;-81
2023/04/17 01:09:07;;;;;;;69.20;30.57;;;7.90;99.90;;;;;;5029327;28;20398;-81
2023/04/17 01:11:33;;;;;;;70.80;32.45;;;7.90;99.90;;;;;;5030410;28;20064;-81
2023/04/17 01:13:59;;;;;;;63.38;29.90;;;7.90;99.90;;;;;;5030024;28;20033;-81
2023/04/17 01:16:25;;;;;;;70.93;32.38;;;7.90;99.90;;;;;;5014281;28;20084;-81
2023/04/17 01:18:50;;;;;;;65.45;30.52;;;7.90;99.90;;;;;;5013729;28;20513;-81
2023/04/17 01:21:16;;;;;;;71.35;32.10;;;7.90;99.90;;;;;;5013580;28;20042;-81
2023/04/17 01:23:50;;;;;;;68.50;31.60;;;8.70;99.90;;;;;;5015601;28;20038;-80
2023/04/17 01:26:18;;;;;;;67.20;30.63;;;7.90;99.90;;;;;;5032253;28;20041;-81
2023/04/17 01:28:50;;;;;;;70.68;31.08;;;7.90;99.90;;;;;;5015105;28;20041;-81
2023/04/17 01:31:15;;;;;;;74.45;31.23;;;7.90;99.90;;;;;;5017236;28;20037;-81
2023/04/17 01:33:41;;;;;;;64.40;30.77;;;7.90;99.90;;;;;;5031281;28;20394;-81
2023/04/17 01:36:07;;;;;;;73.65;30.75;;;7.90;99.90;;;;;;5029558;28;20494;-82
2023/04/17 01:38:32;;;;;;;74.38;30.48;;;7.90;99.90;;;;;;5028790;28;20088;-81
2023/04/17 01:40:58;;;;;;;69.85;30.77;;;7.90;99.90;;;;;;5014466;28;20107;-81
2023/04/17 01:43:24;;;;;;;65.90;30.63;;;7.90;99.90;;;;;;5013776;28;20045;-81
2023/04/17 01:45:50;;;;;;;69.43;30.40;;;7.90;99.90;;;;;;5014180;28;20262;-81
2023/04/17 01:48:15;;;;;;;66.68;31.10;;;8.10;99.90;;;;;;5012405;28;20061;-81
2023/04/17 01:50:41;;;;;;;64.70;30.42;;;7.90;99.90;;;;;;5013596;28;20045;-81
2023/04/17 01:53:06;;;;;;;64.72;29.65;;;8.50;99.90;;;;;;5028989;28;20038;-81
2023/04/17 01:55:32;;;;;;;66.05;30.02;;;7.90;99.90;;;;;;5029051;28;20061;-81
2023/04/17 01:57:57;;;;;;;65.65;29.58;;;7.90;99.90;;;;;;5013034;28;20044;-81
2023/04/17 02:00:23;;;;;;;68.50;30.63;;;7.90;99.90;;;;;;5029337;28;20065;-80
2023/04/17 02:02:49;;;;;;;60.88;28.38;;;7.90;99.90;;;;;;5028723;28;20057;-81
2023/04/17 02:05:14;;;;;;;68.95;31.52;;;7.90;99.90;;;;;;5012594;28;20569;-81
2023/04/17 02:07:40;;;;;;;66.95;30.95;;;7.90;99.90;;;;;;5014126;28;20043;-81
2023/04/17 02:10:06;;;;;;;61.72;30.63;;;7.90;99.90;;;;;;5028782;28;20042;-81
2023/04/17 02:12:32;;;;;;;65.65;29.58;;;7.90;99.90;;;;;;5012035;28;20049;-81
2023/04/17 02:14:59;;;;;;;64.38;30.58;;;7.90;99.90;;;;;;5011934;28;20047;-81
2023/04/17 02:17:26;;;;;;;65.22;30.75;;;7.90;99.90;;;;;;5029146;28;20436;-81
2023/04/17 02:19:51;;;;;;;59.80;29.08;;;7.90;99.90;;;;;;5028479;28;20104;-81
2023/04/17 02:22:17;;;;;;;63.38;29.58;;;7.90;99.90;;;;;;5013447;28;20054;-81
2023/04/17 02:24:43;;;;;;;66.30;30.55;;;7.90;99.90;;;;;;5029103;28;20064;-81
2023/04/17 02:27:08;;;;;;;60.72;29.63;;;7.90;99.90;;;;;;5027940;28;20497;-81
2023/04/17 02:29:34;;;;;;;60.88;29.30;;;7.90;99.90;;;;;;5013616;28;20045;-81
2023/04/17 02:31:59;;;;;;;63.70;29.52;;;7.90;99.90;;;;;;5013412;28;20564;-81
2023/04/17 02:34:26;;;;;;;64.43;29.43;;;7.90;99.90;;;;;;5011726;28;20050;-81
2023/04/17 02:36:51;;;;;;;63.73;29.83;;;7.90;99.90;;;;;;5028480;28;20081;-81
2023/04/17 02:39:17;;;;;;;58.93;27.67;;;7.90;99.90;;;;;;5013234;28;20446;-81
2023/04/17 02:41:42;;;;;;;58.03;28.07;;;7.90;99.90;;;;;;5012827;28;20061;-81
2023/04/17 02:44:08;;;;;;;63.63;28.23;;;7.90;99.90;;;;;;5013148;28;20394;-81
2023/04/17 02:46:34;;;;;;;63.00;29.30;;;7.90;99.90;;;;;;5028356;28;20095;-80
2023/04/17 02:48:59;;;;;;;58.33;28.60;;;7.80;99.90;;;;;;5011782;28;20157;-81
2023/04/17 02:51:25;;;;;;;56.83;27.50;;;7.80;99.90;;;;;;5013173;28;20038;-81
2023/04/17 02:53:51;;;;;;;55.15;27.65;;;7.80;99.90;;;;;;5012725;28;20120;-81
2023/04/17 02:56:16;;;;;;;61.08;28.45;;;7.80;99.90;;;;;;5030900;28;20054;-81
2023/04/17 02:58:44;;;;;;;58.58;29.15;;;7.80;99.90;;;;;;5028821;28;20047;-81
2023/04/17 03:01:10;;;;;;;60.80;29.50;;;7.80;99.90;;;;;;5012860;28;20042;-81
2023/04/17 03:03:40;;;;;;;60.17;29.83;;;7.80;99.90;;;;;;5031833;28;20481;-81
2023/04/17 03:06:07;;;;;;;58.53;30.13;;;7.80;99.90;;;;;;5013080;28;20081;-81
2023/04/17 03:08:34;;;;;;;60.15;29.13;;;7.80;99.90;;;;;;5012536;28;20164;-81
2023/04/17 03:11:02;;;;;;;62.25;29.25;;;7.70;99.90;;;;;;5028192;28;20054;-81
2023/04/17 03:13:27;;;;;;;61.90;29.20;;;7.70;99.90;;;;;;5028292;28;20037;-81
2023/04/17 03:15:53;;;;;;;63.80;29.63;;;7.80;99.90;;;;;;5027320;28;20444;-81
2023/04/17 03:18:19;;;;;;;63.53;30.15;;;7.70;99.90;;;;;;5011557;28;20046;-81
2023/04/17 03:20:44;;;;;;;63.85;28.25;;;7.80;99.90;;;;;;5013228;28;20400;-81
2023/04/17 03:23:10;;;;;;;62.22;30.50;;;7.70;99.90;;;;;;5012049;28;20041;-81
2023/04/17 03:25:36;;;;;;;68.72;30.65;;;7.70;99.90;;;;;;5011788;28;20049;-81
2023/04/17 03:28:02;;;;;;;73.22;31.80;;;7.70;99.90;;;;;;5027859;28;20490;-81
2023/04/17 03:30:28;;;;;;;72.07;31.25;;;7.70;99.90;;;;;;5027283;28;20053;-81
2023/04/17 03:32:53;;;;;;;73.60;31.02;;;7.70;99.90;;;;;;5011870;28;20521;-81
2023/04/17 03:35:19;;;;;;;76.32;32.67;;;7.70;99.90;;;;;;5012511;28;20045;-81
2023/04/17 03:37:44;;;;;;;72.22;32.00;;;7.70;99.90;;;;;;5012066;28;20049;-81
2023/04/17 03:40:10;;;;;;;72.22;32.83;;;7.70;99.90;;;;;;5011526;28;20041;-81
2023/04/17 03:42:36;;;;;;;75.50;31.00;;;7.70;99.90;;;;;;5027963;28;20049;-81
2023/04/17 03:45:03;;;;;;;79.57;32.65;;;7.60;99.90;;;;;;5026926;28;20069;-81
2023/04/17 03:47:29;;;;;;;73.50;30.77;;;8.30;99.90;;;;;;5013029;28;20049;-81
2023/04/17 03:49:54;;;;;;;74.75;32.22;;;7.60;99.90;;;;;;5027854;28;20401;-81
2023/04/17 03:52:20;;;;;;;75.18;31.45;;;8.50;99.90;;;;;;5010509;28;20053;-81
2023/04/17 03:54:47;;;;;;;84.82;30.88;;;7.60;99.90;;;;;;5011064;28;20053;-81
2023/04/17 03:57:14;;;;;;;76.82;32.22;;;7.60;99.90;;;;;;5026722;28;20069;-81
2023/04/17 03:59:39;;;;;;;80.75;32.55;;;7.60;99.90;;;;;;5027594;28;20137;-81
2023/04/17 04:02:05;;;;;;;78.25;32.42;;;7.50;99.90;;;;;;5023200;28;20096;-81
2023/04/17 04:04:31;;;;;;;82.55;33.42;;;7.50;99.90;;;;;;4997476;28;20050;-80
2023/04/17 04:06:57;;;;;;;83.05;33.17;;;7.60;99.90;;;;;;4997559;28;20046;-81
2023/04/17 04:09:24;;;;;;;83.03;33.40;;;7.60;99.90;;;;;;5016158;28;20041;-81
2023/04/17 04:11:49;;;;;;;111.10;35.05;;;7.50;99.90;;;;;;4997984;28;20042;-81
2023/04/17 04:14:15;;;;;;;86.30;34.13;;;7.50;99.90;;;;;;5015444;28;20053;-81
2023/04/17 04:16:41;;;;;;;95.07;34.60;;;7.60;99.90;;;;;;5016081;28;20092;-81
2023/04/17 04:19:07;;;;;;;87.03;32.10;;;7.60;99.90;;;;;;4997512;28;20049;-81
2023/04/17 04:21:34;;;;;;;90.22;32.60;;;7.60;99.90;;;;;;5016000;28;20045;-81
2023/04/17 04:23:59;;;;;;;84.93;33.45;;;7.50;99.90;;;;;;4999013;28;20118;-81
2023/04/17 04:26:26;;;;;;;89.80;33.08;;;7.60;99.90;;;;;;5001223;28;20052;-81
2023/04/17 04:28:52;;;;;;;82.32;33.55;;;7.50;99.90;;;;;;5016180;28;20073;-81
2023/04/17 04:31:18;;;;;;;88.32;33.45;;;7.60;99.90;;;;;;5015696;28;20050;-81
2023/04/17 04:33:44;;;;;;;79.25;31.63;;;7.50;99.90;;;;;;5001164;28;20048;-81
2023/04/17 04:36:12;;;;;;;89.30;31.65;;;7.60;99.90;;;;;;5015767;28;20046;-81
2023/04/17 04:38:38;;;;;;;80.78;32.75;;;7.60;99.90;;;;;;4998296;28;20045;-81
2023/04/17 04:41:09;;;;;;;84.68;33.78;;;7.50;99.90;;;;;;4996863;28;20050;-81
2023/04/17 04:43:35;;;;;;;79.43;32.33;;;7.50;99.90;;;;;;4998137;28;20046;-81
2023/04/17 04:46:01;;;;;;;81.05;33.50;;;7.50;99.90;;;;;;5015095;28;20449;-81
2023/04/17 04:48:27;;;;;;;89.97;33.25;;;7.50;99.90;;;;;;4997376;28;20130;-81
2023/04/17 04:50:54;;;;;;;80.07;32.35;;;7.50;99.90;;;;;;4998059;28;20475;-81
2023/04/17 04:53:20;;;;;;;84.82;32.63;;;7.40;99.90;;;;;;4996961;28;20047;-81
2023/04/17 04:55:45;;;;;;;79.00;31.95;;;7.50;99.90;;;;;;5014871;28;20127;-81
2023/04/17 04:58:11;;;;;;;79.07;31.42;;;7.50;99.90;;;;;;5015102;28;20045;-81
2023/04/17 05:00:37;;;;;;;81.38;30.25;;;7.50;99.90;;;;;;5014677;28;20050;-81
2023/04/17 05:03:02;;;;;;;82.40;34.40;;;7.50;99.90;;;;;;4997316;28;20520;-81
2023/04/17 05:05:28;;;;;;;86.53;32.90;;;7.50;99.90;;;;;;5015282;28;20394;-81
2023/04/17 05:07:54;;;;;;;81.90;32.83;;;7.50;99.90;;;;;;5014593;28;20125;-81
2023/04/17 05:10:20;;;;;;;79.20;32.83;;;7.50;99.90;;;;;;5014956;28;20125;-81
2023/04/17 05:12:46;;;;;;;81.18;32.53;;;7.50;99.90;;;;;;5014453;28;20532;-81
2023/04/17 05:15:11;;;;;;;76.18;31.08;;;7.50;99.90;;;;;;4996270;28;20045;-81
2023/04/17 05:17:37;;;;;;;85.57;30.92;;;7.50;99.90;;;;;;5015133;28;20367;-81
2023/04/17 05:20:08;;;;;;;81.43;31.98;;;7.50;99.90;;;;;;5014485;28;20398;-81
2023/04/17 05:22:34;;;;;;;87.93;33.75;;;7.40;99.90;;;;;;5014175;28;20041;-81
2023/04/17 05:25:00;;;;;;;88.82;32.95;;;7.50;99.90;;;;;;4996700;28;20045;-81
2023/04/17 05:27:25;;;;;;;76.65;32.00;;;7.50;99.90;;;;;;5014810;28;20046;-81
2023/04/17 05:29:51;;;;;;;81.97;31.88;;;7.50;99.90;;;;;;4996113;28;20120;-81
2023/04/17 05:32:17;;;;;;;82.72;31.95;;;7.50;99.90;;;;;;5014636;28;20077;-81
2023/04/17 05:34:45;;;;;;;80.25;32.40;;;7.60;99.90;;;;;;4997045;28;20042;-81
2023/04/17 05:37:10;;;;;;;80.15;32.90;;;7.50;99.90;;;;;;5013808;28;20041;-81
2023/04/17 05:39:36;;;;;;;81.82;32.45;;;7.50;99.90;;;;;;5407924;22;20528;-81
2023/04/17 05:42:02;;;;;;;81.60;32.00;;;7.60;99.90;;;;;;4980514;28;20054;-81
2023/04/17 05:44:28;;;;;;;78.30;32.55;;;7.60;99.90;;;;;;4996105;28;20497;-80
2023/04/17 05:47:00;;;;;;;81.57;31.77;;;7.60;99.90;;;;;;4996707;28;20555;-81
2023/04/17 05:49:26;;;;;;;76.47;31.73;;;7.70;99.90;;;;;;4996709;28;20133;-81
2023/04/17 05:51:51;;;;;;;82.65;31.77;;;7.60;99.90;;;;;;5013783;28;20125;-81
2023/04/17 05:54:17;;;;;;;78.30;31.63;;;7.60;99.90;;;;;;4996529;28;20069;-81
2023/04/17 05:56:43;;;;;;;86.80;33.75;;;7.50;99.90;;;;;;5017576;28;20072;-81
2023/04/17 05:59:26;;;;;;;76.90;30.50;;;7.60;99.90;;;;;;4997756;28;20060;-81
2023/04/17 06:01:52;;;;;;;81.77;32.30;;;8.00;99.90;;;;;;4997029;28;20073;-81
2023/04/17 06:04:17;;;;;;;75.78;31.75;;;7.60;99.90;;;;;;4998714;28;20371;-81
2023/04/17 06:06:43;;;;;;;85.80;33.30;;;7.60;99.90;;;;;;4996741;28;20077;-81
2023/04/17 06:09:09;;;;;;;83.05;33.17;;;7.70;99.90;;;;;;5013984;28;20458;-81
2023/04/17 06:11:36;;;;;;;84.15;33.63;;;7.70;99.90;;;;;;4995619;28;20486;-81
2023/04/17 06:14:01;;;;;;;75.28;31.02;;;7.80;99.90;;;;;;4996143;28;20077;-81
2023/04/17 06:16:27;;;;;;;74.95;31.20;;;7.80;99.90;;;;;;4996089;28;20038;-81
2023/04/17 06:18:52;;;;;;;82.10;33.13;;;7.80;99.90;;;;;;5013301;28;20083;-81
2023/04/17 06:21:18;;;;;;;83.93;33.25;;;7.80;99.90;;;;;;5013592;28;20054;-81
2023/04/17 06:23:44;;;;;;;75.43;31.58;;;7.80;99.90;;;;;;5013584;28;20045;-81
2023/04/17 06:26:11;;;;;;;76.38;32.97;;;7.80;99.90;;;;;;5012938;28;20129;-81
2023/04/17 06:28:36;;;;;;;72.57;31.63;;;7.90;99.90;;;;;;4996327;28;20058;-81
2023/04/17 06:31:02;;;;;;;68.13;31.40;;;7.90;99.90;;;;;;5013374;28;20038;-81
2023/04/17 06:33:28;;;;;;;74.53;31.27;;;7.90;99.90;;;;;;5012791;28;20111;-81
2023/04/17 06:35:53;;;;;;;61.60;29.63;;;7.90;99.90;;;;;;4995638;28;20038;-81
2023/04/17 06:38:19;;;;;;;64.25;29.42;;;7.90;99.90;;;;;;4996012;28;20045;-81
2023/04/17 06:40:45;;;;;;;68.53;31.70;;;7.90;99.90;;;;;;4995352;28;20057;-81
2023/04/17 06:43:11;;;;;;;64.28;28.45;;;7.90;99.90;;;;;;5013123;28;20509;-81
2023/04/17 06:45:36;;;;;;;65.07;30.50;;;7.90;99.90;;;;;;5013503;28;20084;-81
2023/04/17 06:48:02;;;;;;;67.55;30.17;;;8.00;99.90;;;;;;5012366;28;20042;-81
2023/04/17 06:50:28;;;;;;;65.18;29.33;;;8.00;99.90;;;;;;5013090;28;20064;-81
2023/04/17 06:52:53;;;;;;;63.20;29.90;;;8.00;99.90;;;;;;4995103;28;20045;-81
2023/04/17 06:55:19;;;;;;;66.93;31.42;;;8.00;99.90;;;;;;5011887;28;20556;-81
2023/04/17 06:57:45;;;;;;;66.00;30.35;;;8.10;99.90;;;;;;4996041;28;20046;-82
2023/04/17 07:00:11;;;;;;;65.85;30.15;;;8.10;99.90;;;;;;4994723;28;20057;-82
2023/04/17 07:02:37;;;;;;;63.97;30.55;;;8.10;99.90;;;;;;5013420;28;20050;-84
2023/04/17 07:05:06;;;;;;;64.43;30.73;;;9.30;99.90;;;;;;4995195;28;20054;-85
2023/04/17 07:07:33;;;;;;;63.72;29.35;;;8.20;99.90;;;;;;5012754;28;20099;-84
2023/04/17 07:09:59;;;;;;;66.88;31.25;;;8.30;99.90;;;;;;4995805;28;20054;-84
2023/04/17 07:12:25;;;;;;;62.95;30.98;;;8.30;99.90;;;;;;4995914;28;20556;-84
2023/04/17 07:14:51;;;;;;;70.63;32.33;;;8.30;99.90;;;;;;4995250;28;20444;-84
2023/04/17 07:17:16;;;;;;;61.47;30.77;;;8.30;99.90;;;;;;4995530;28;20038;-83
2023/04/17 07:19:42;;;;;;;56.63;28.38;;;8.60;99.90;;;;;;4995755;28;20046;-84
2023/04/17 07:22:08;;;;;;;58.25;29.27;;;8.30;99.90;;;;;;4994560;28;20494;-84
2023/04/17 07:24:34;;;;;;;60.65;29.77;;;8.40;99.90;;;;;;4995861;28;20042;-84
2023/04/17 07:27:04;;;;;;;62.78;29.52;;;8.40;99.90;;;;;;4996838;28;20505;-84
2023/04/17 07:29:30;;;;;;;65.40;30.77;;;8.50;99.90;;;;;;4995937;28;20081;-85
2023/04/17 07:31:55;;;;;;;63.40;30.33;;;8.50;99.90;;;;;;4995349;28;20050;-84
2023/04/17 07:34:23;;;;;;;60.58;30.08;;;8.60;99.90;;;;;;4996985;28;20405;-84
2023/04/17 07:36:50;;;;;;;56.20;29.90;;;8.70;99.90;;;;;;5015763;28;20052;-83
2023/04/17 07:39:16;;;;;;;59.47;29.45;;;8.80;99.90;;;;;;4998780;28;20112;-85
2023/04/17 07:41:42;;;;;;;58.33;29.48;;;8.80;99.90;;;;;;5017200;28;20096;-84
2023/04/17 07:44:08;;;;;;;53.10;27.80;;;9.00;99.90;;;;;;5016116;28;20078;-84
2023/04/17 07:46:33;;;;;;;51.75;27.38;;;9.20;99.90;;;;;;5016390;28;20042;-84
2023/04/17 07:48:59;;;;;;;51.72;27.48;;;9.30;99.90;;;;;;4998973;28;20064;-84
2023/04/17 07:51:25;;;;;;;49.28;26.83;;;9.30;99.90;;;;;;4998662;28;20061;-84
2023/04/17 07:53:50;;;;;;;48.42;26.98;;;9.30;99.90;;;;;;4999486;28;20108;-85
2023/04/17 07:56:16;;;;;;;51.40;28.10;;;9.40;99.90;;;;;;4998040;28;20501;-84
2023/04/17 07:58:44;;;;;;;51.63;28.35;;;9.30;99.90;;;;;;5000053;28;20046;-84
2023/04/17 08:01:12;;;;;;;50.90;26.15;;;10.20;99.90;;;;;;4998918;28;20061;-84
2023/04/17 08:03:40;;;;;;;48.67;26.17;;;9.40;99.90;;;;;;4998180;28;20093;-84
2023/04/17 08:06:05;;;;;;;49.05;26.90;;;9.30;99.90;;;;;;5016337;28;20045;-84
2023/04/17 08:08:31;;;;;;;54.03;29.13;;;9.40;99.90;;;;;;4998803;28;20050;-84
2023/04/17 08:10:57;;;;;;;52.78;29.33;;;9.40;99.90;;;;;;4997824;28;20050;-84
2023/04/17 08:13:22;;;;;;;49.35;27.88;;;9.50;99.90;;;;;;5016878;28;20045;-84
2023/04/17 08:15:50;;;;;;;53.40;28.88;;;9.60;99.90;;;;;;4999044;28;20490;-84
2023/04/17 08:18:16;;;;;;;47.33;29.10;;;9.60;99.90;;;;;;4998265;28;20057;-84
2023/04/17 08:20:42;;;;;;;52.10;28.88;;;9.70;99.90;;;;;;4999316;28;20085;-85
2023/04/17 08:23:07;;;;;;;52.15;27.95;;;9.80;99.90;;;;;;4998696;28;20049;-85
2023/04/17 08:25:33;;;;;;;49.03;27.90;;;10.80;99.90;;;;;;5016225;28;20045;-84
2023/04/17 08:27:58;;;;;;;52.40;29.02;;;10.80;99.90;;;;;;5016871;28;20034;-84
2023/04/17 08:30:24;;;;;;;49.25;28.95;;;10.10;99.90;;;;;;5016727;28;20042;-85
2023/04/17 08:32:51;;;;;;;50.13;30.02;;;10.20;99.90;;;;;;5015890;28;20033;-85
2023/04/17 08:35:16;;;;;;;46.13;28.70;;;10.30;99.90;;;;;;5003712;28;20053;-85
2023/04/17 08:37:45;;;;;;;48.92;28.00;;;10.40;99.90;;;;;;5016410;28;20120;-85
2023/04/17 08:40:12;;;;;;;45.67;27.63;;;10.40;99.90;;;;;;5015273;28;20065;-85
2023/04/17 08:42:40;;;;;;;42.78;26.55;;;10.60;99.90;;;;;;4998392;28;20046;-85
2023/04/17 08:45:10;;;;;;;46.55;28.20;;;10.70;99.90;;;;;;4997777;28;20042;-85
2023/04/17 08:47:41;;;;;;;43.05;26.40;;;10.80;99.90;;;;;;4996702;28;20045;-85
2023/04/17 08:50:08;;;;;;;44.50;27.05;;;10.90;99.90;;;;;;4997974;28;20492;-85
2023/04/17 08:52:38;;;;;;;45.20;27.52;;;11.00;99.90;;;;;;5014809;28;20045;-85
2023/04/17 08:55:06;;;;;;;41.38;27.00;;;11.30;99.90;;;;;;5015468;28;20053;-84
2023/04/17 08:57:32;;;;;;;43.67;27.15;;;11.30;99.90;;;;;;5001002;28;20045;-85
2023/04/17 08:59:59;;;;;;;43.40;27.05;;;11.40;99.90;;;;;;4997547;28;20056;-86
2023/04/17 09:02:24;;;;;;;41.92;26.65;;;11.60;99.90;;;;;;4998620;28;20045;-85
2023/04/17 09:04:50;;;;;;;38.92;25.35;;;11.70;99.90;;;;;;5017514;28;20049;-85
2023/04/17 09:07:16;;;;;;;38.03;25.85;;;11.80;99.90;;;;;;4997559;28;20537;-85
2023/04/17 09:09:55;;;;;;;40.80;25.85;;;12.00;99.90;;;;;;4998255;28;20125;-85
2023/04/17 09:12:25;;;;;;;41.25;26.77;;;12.00;99.90;;;;;;4997972;28;20167;-85
2023/04/17 09:14:51;;;;;;;37.65;25.10;;;12.80;99.90;;;;;;5014913;28;20046;-85
2023/04/17 09:17:18;;;;;;;40.85;25.67;;;12.40;99.90;;;;;;5015283;28;20401;-85
2023/04/17 09:20:06;;;;;;;39.50;25.70;;;13.30;99.90;;;;;;4997675;28;20124;-85
2023/04/17 09:22:32;;;;;;;38.17;24.27;;;12.50;99.90;;;;;;4996792;28;20085;-85
2023/04/17 09:24:58;;;;;;;34.40;24.00;;;12.60;99.90;;;;;;4997272;28;20045;-85
2023/04/17 09:27:27;;;;;;;35.45;24.15;;;12.70;99.90;;;;;;4997871;28;20041;-85
2023/04/17 09:30:01;;;;;;;35.45;23.25;;;13.50;99.90;;;;;;5016254;28;20042;-86
2023/04/17 09:32:29;;;;;;;33.72;22.35;;;12.90;99.90;;;;;;5015442;28;20044;-85
2023/04/17 09:35:00;;;;;;;31.50;22.00;;;13.00;99.90;;;;;;5014080;28;20478;-85
2023/04/17 09:37:47;;;;;;;35.55;23.15;;;13.80;99.90;;;;;;4997429;28;20049;-85
2023/04/17 09:40:13;;;;;;;30.13;22.13;;;13.80;99.90;;;;;;5014426;28;20445;-86
2023/04/17 09:43:00;;;;;;;29.40;21.48;;;13.80;99.90;;;;;;5014389;28;20439;-85
2023/04/17 09:45:34;;;;;;;26.35;19.73;;;13.10;99.90;;;;;;4997189;28;20125;-85
2023/04/17 09:48:01;;;;;;;27.60;19.70;;;13.10;99.90;;;;;;5015086;28;20041;-86
2023/04/17 09:50:27;;;;;;;27.65;19.75;;;13.20;99.90;;;;;;4996956;28;20046;-86
2023/04/17 09:52:54;;;;;;;25.95;18.83;;;13.20;99.90;;;;;;4996956;28;20048;-86
2023/04/17 09:55:22;;;;;;;24.67;17.23;;;13.30;99.90;;;;;;4997021;28;20049;-86
2023/04/17 09:57:53;;;;;;;24.83;18.25;;;14.70;99.90;;;;;;5013717;28;20046;-86
2023/04/17 10:00:20;;;;;;;26.73;18.15;;;14.90;99.90;;;;;;4996664;28;20046;-86
2023/04/17 10:02:52;;;;;;;25.27;17.95;;;14.10;99.90;;;;;;5014332;28;20041;-86
2023/04/17 10:05:19;;;;;;;23.45;17.17;;;14.30;99.90;;;;;;4997065;28;20506;-86
2023/04/17 10:07:45;;;;;;;23.60;17.83;;;14.70;99.90;;;;;;5014409;28;20494;-86
2023/04/17 10:10:22;;;;;;;22.83;15.73;;;14.50;99.90;;;;;;5013258;28;20050;-86
2023/04/17 10:12:50;;;;;;;22.95;16.10;;;14.60;99.90;;;;;;5014295;28;20042;-86
2023/04/17 10:15:16;;;;;;;22.85;16.10;;;15.80;99.90;;;;;;5013827;28;20042;-86
2023/04/17 10:17:41;;;;;;;21.17;15.50;;;15.00;99.90;;;;;;5013692;28;20116;-86
2023/04/17 10:20:16;;;;;;;22.10;15.82;;;15.40;99.90;;;;;;4996672;28;20429;-86
2023/04/17 10:22:42;;;;;;;22.40;16.55;;;15.40;99.90;;;;;;5014232;28;20050;-86
2023/04/17 10:25:11;;;;;;;22.17;15.13;;;15.50;99.90;;;;;;4995878;28;20045;-86
2023/04/17 10:27:37;;;;;;;21.77;15.10;;;15.20;99.90;;;;;;4997804;28;20141;-86
2023/04/17 10:30:11;;;;;;;21.88;14.27;;;15.30;99.90;;;;;;4996055;28;20112;-86
2023/04/17 10:32:39;;;;;;;19.63;13.40;;;15.20;99.90;;;;;;5013944;28;20041;-86
2023/04/17 10:35:16;;;;;;;21.60;13.90;;;15.40;99.90;;;;;;5014187;28;20121;-86
2023/04/17 10:38:02;;;;;;;18.45;12.25;;;15.70;99.90;;;;;;4997804;28;20057;-86
2023/04/17 10:40:34;;;;;;;18.58;13.20;;;16.30;99.90;;;;;;4996963;28;20050;-86
2023/04/17 10:43:09;;;;;;;20.75;13.20;;;16.70;99.90;;;;;;5014248;28;20049;-86
2023/04/17 10:46:11;;;;;;;18.40;11.60;;;17.00;99.90;;;;;;4996211;28;20429;-86
2023/04/17 10:48:37;;;;;;;16.45;11.30;;;16.80;99.90;;;;;;4996363;28;20050;-86
2023/04/17 10:51:23;;;;;;;18.20;12.27;;;16.20;99.90;;;;;;4996061;28;20481;-86
2023/04/17 10:53:50;;;;;;;17.70;11.52;;;15.90;99.90;;;;;;4995224;28;20046;-86
2023/04/17 10:56:26;;;;;;;16.40;11.32;;;15.60;99.90;;;;;;4995754;28;20042;-86
2023/04/17 10:59:00;;;;;;;18.52;11.70;;;15.90;99.90;;;;;;4997744;28;20042;-88
2023/04/17 11:01:35;;;;;;;17.00;11.65;;;15.90;99.90;;;;;;5014312;28;20041;-86
2023/04/17 11:04:01;;;;;;;17.95;11.93;;;15.70;99.90;;;;;;4998521;28;20069;-86
2023/04/17 11:06:30;;;;;;;16.60;11.98;;;15.90;99.90;;;;;;4996126;28;20457;-87
2023/04/17 11:08:57;;;;;;;16.98;12.13;;;16.20;99.90;;;;;;4996601;28;20071;-86
2023/04/17 11:11:22;;;;;;;18.98;12.05;;;16.90;99.90;;;;;;5013005;28;20049;-86
2023/04/17 11:13:48;;;;;;;18.30;11.05;;;17.10;99.90;;;;;;4995101;28;20093;-86
2023/04/17 11:16:15;;;;;;;16.95;11.32;;;17.60;99.90;;;;;;5012996;28;20366;-87
2023/04/17 11:18:45;;;;;;;17.35;11.90;;;18.50;99.90;;;;;;5013629;28;20042;-86
2023/04/17 11:21:15;;;;;;;16.05;11.20;;;18.20;99.90;;;;;;4994976;28;20061;-86
2023/04/17 11:23:52;;;;;;;17.08;11.75;;;18.40;99.90;;;;;;5012986;28;20494;-87
2023/04/17 11:26:19;;;;;;;17.70;11.45;;;18.60;99.90;;;;;;4995461;28;20046;-87
2023/04/17 11:28:46;;;;;;;17.73;12.55;;;18.40;99.90;;;;;;5014266;28;20196;-86
2023/04/17 11:31:13;;;;;;;16.85;12.27;;;17.80;99.90;;;;;;5013139;28;20096;-86
2023/04/17 11:33:39;;;;;;;17.10;11.77;;;17.50;99.90;;;;;;4995782;28;20100;-86
2023/04/17 11:36:06;;;;;;;17.65;12.13;;;17.40;99.90;;;;;;5012917;28;20049;-86
2023/04/17 11:38:32;;;;;;;20.67;12.18;;;17.70;99.90;;;;;;4997237;28;20481;-86
2023/04/17 11:41:00;;;;;;;16.38;11.93;;;17.70;99.90;;;;;;4995273;28;20168;-86
2023/04/17 11:43:29;;;;;;;22.13;12.48;;;17.60;99.90;;;;;;4994956;28;20116;-86
2023/04/17 11:46:00;;;;;;;18.83;12.30;;;17.50;99.90;;;;;;4995255;28;20053;-86
2023/04/17 11:48:27;;;;;;;18.60;12.55;;;17.70;99.90;;;;;;5012113;28;20088;-87
2023/04/17 11:50:55;;;;;;;19.02;12.23;;;17.70;99.90;;;;;;4995502;28;20486;-86
2023/04/17 11:53:21;;;;;;;19.00;12.82;;;18.10;99.90;;;;;;5013300;28;20041;-86
2023/04/17 11:55:48;;;;;;;17.23;12.00;;;17.40;99.90;;;;;;5013491;28;20390;-86
2023/04/17 11:58:14;;;;;;;17.70;11.93;;;17.30;99.90;;;;;;4995610;28;20558;-86
2023/04/17 12:00:41;;;;;;;18.77;13.40;;;17.30;99.90;;;;;;5013842;28;20128;-86
2023/04/17 12:03:31;;;;;;;19.63;14.35;;;16.30;99.90;;;;;;5013699;28;20056;-87
2023/04/17 12:05:58;;;;;;;18.23;14.25;;;16.00;99.90;;;;;;5012940;28;20045;-86
2023/04/17 12:08:24;;;;;;;19.25;13.30;;;15.90;99.90;;;;;;4995243;28;20121;-87
2023/04/17 12:10:50;;;;;;;19.83;13.68;;;16.60;99.90;;;;;;4994542;28;20042;-86
2023/04/17 12:13:15;;;;;;;20.23;13.90;;;15.80;99.90;;;;;;5012425;28;20061;-86
2023/04/17 12:15:41;;;;;;;21.08;14.27;;;15.90;99.90;;;;;;5012725;28;20379;-86
2023/04/17 12:18:08;;;;;;;19.45;13.88;;;15.90;99.90;;;;;;5011835;28;20497;-86
2023/04/17 12:20:37;;;;;;;20.20;13.82;;;15.80;99.90;;;;;;4995680;28;20056;-87
2023/04/17 12:23:04;;;;;;;20.42;13.48;;;16.10;99.90;;;;;;4997728;28;20100;-87
2023/04/17 12:25:32;;;;;;;19.63;13.75;;;16.90;99.90;;;;;;4997735;28;20465;-87
2023/04/17 12:27:58;;;;;;;20.95;13.32;;;16.90;99.90;;;;;;5001141;28;20077;-87
2023/04/17 12:30:27;;;;;;;18.80;13.00;;;17.30;99.90;;;;;;5019368;28;20042;-86
2023/04/17 12:32:53;;;;;;;19.45;13.23;;;17.40;99.90;;;;;;4998345;28;20136;-86